Observations for Trim Patrick St
| Time | AQI | Temp °C | Hum % | Pres Pa | CO μg/m³ | H₂S μg/m³ | NO μg/m³ | NO₂ μg/m³ | O₃ μg/m³ | SO₂ μg/m³ | PM1 μg/m³ | PM2.5 μg/m³ | PM10 μg/m³ |
|---|---|---|---|---|---|---|---|---|---|---|---|---|---|
| Tuesday 4 August 2026 | |||||||||||||
| 11:34 | 1 | 30.1 | 52 | 71,619 | 0 | 0 | 1.2 | 9.82 | 32.42 | 15.95 | 2 | 6.29 | 6.92 |
| 11:32 | 1 | 29.7 | 54 | 72,648 | 0 | 0 | 1.41 | 11.41 | 29.57 | 15.61 | 2 | 6.15 | 6.76 |
| 11:31 | 1 | 29.5 | 56 | 73,141 | 0 | 0 | 1.46 | 7.32 | 19.82 | 16.01 | 2 | 6.06 | 6.67 |
| 11:30 | 1 | 29.3 | 54 | 73,673 | 0 | 0 | 1.28 | 12.28 | 43.38 | 14.79 | 2 | 6.19 | 6.8 |
| 11:29 | 1 | 29.1 | 55 | 74,194 | 0 | 0 | 1.36 | 7.68 | 18.6 | 15.34 | 2.86 | 6.84 | 7.53 |
| 11:28 | 1 | 28.9 | 56 | 74,784 | 0 | 0 | 1.46 | 9.87 | 43.91 | 15.26 | 2 | 6.06 | 6.67 |
| 11:27 | 1 | 28.7 | 55 | 75,165 | 0 | 0 | 1.36 | 11.71 | 38.42 | 14.07 | 2 | 6.11 | 6.72 |
| 11:26 | 1 | 28.5 | 56 | 75,383 | 0 | 0 | 1.45 | 11.28 | 43.14 | 14.34 | 2 | 6.07 | 6.67 |
| 11:25 | 1 | 28.3 | 55 | 75,585 | 0 | 0 | 1.5 | 5.81 | 16.18 | 14.3 | 2 | 6.12 | 6.73 |
| 11:24 | 1 | 28.1 | 58 | 75,819 | 0 | 0 | 1.7 | 9.51 | 43.18 | 15.15 | 2 | 5.89 | 6.48 |
| 11:23 | 1 | 27.9 | 57 | 76,051 | 0 | 0 | 1.58 | 10.97 | 46.65 | 13.71 | 2 | 5.99 | 6.59 |
| 11:22 | 1 | 27.8 | 58 | 76,226 | 0 | 0 | 1.57 | 7.15 | 28.72 | 14.06 | 2 | 5.9 | 6.49 |
| 11:21 | 1 | 27.6 | 57 | 76,505 | 0 | 0 | 1.58 | 7.81 | 39.67 | 13.85 | 2 | 5.98 | 6.58 |
| 11:20 | 1 | 27.5 | 58 | 76,765 | 0 | 0 | 1.58 | 7.82 | 41.52 | 13.31 | 2 | 5.92 | 6.51 |
| 11:19 | 1 | 27.4 | 57 | 77,040 | 0 | 0 | 1.61 | 6.54 | 21.44 | 13.38 | 2 | 5.98 | 6.58 |
| 11:17 | 1 | 27.3 | 58 | 77,884 | 0 | 0 | 1.78 | 6.16 | 36.22 | 13.55 | 2 | 5.91 | 6.51 |
| 11:16 | 1 | 27.2 | 58 | 78,442 | 0 | 0 | 1.82 | 8.84 | 34.19 | 13.08 | 2 | 5.91 | 6.51 |
| 11:15 | 1 | 27.2 | 57 | 79,048 | 0 | 0 | 1.83 | 6.69 | 14.23 | 12.81 | 2 | 5.97 | 6.56 |
| 11:14 | 1 | 27.2 | 58 | 79,845 | 0 | 0 | 1.75 | 10.41 | 30.21 | 13.52 | 2 | 5.91 | 6.51 |
| 11:13 | 1 | 27.1 | 59 | 80,799 | 0 | 0 | 1.75 | 12.5 | 40.77 | 12.68 | 2 | 5.86 | 6.44 |